Kingston, UT (84743)

3:06 AM MST on February 27, 2017 (GMT -0700)
Bryce Canyon | | Change Station
Active Advisory: Winter Weather Advisory

Elev 7585 ft 37.71 °N, 112.15 °W | Updated 13 minutes ago

Partly Cloudy
Partly Cloudy
28 °F
Feels Like 23 °F
N
5
Wind Variable Wind from Variable

Today
High -- | Low -- °F
--% Chance of Precip.
Yesterday
High -- | Low -- °F
Precip. -- in
Pressure 29.67 in
Visibility 10.0 miles
Clouds Overcast 2800 ft
Windchill 23 °F
Dew Point 19 °F
Humidity 69%
Rainfall 0.00 in
Snow Depth Not available.
7:02 AM 6:20 PM
New Moon, 1% visible
METAR KBCE 270953Z AUTO VRB04KT 10SM OVC028 M02/M07 A2975 RMK AO2 SNE33 SLP045 P0000 T10221072 TSNO
Pressure 29.67 in
Visibility 10.0 miles
Clouds Overcast 2800 ft
Windchill 23 °F
Dew Point 19 °F
Humidity 69%
Rainfall 0.00 in
Snow Depth Not available.
7:02 AM 6:20 PM
New Moon, 1% visible
METAR KBCE 270953Z AUTO VRB04KT 10SM OVC028 M02/M07 A2975 RMK AO2 SNE33 SLP045 P0000 T10221072 TSNO

Get Your Daily Forecast Email!

Thanks for signing up!

Be on the lookout for a verification email in your inbox.

You'll start receiving the daily forecast at 8 AM.

×

10-Day Weather Forecast

Almanac

Astronomy

Feb. 27, 2017 Rise Set
Actual Time
Civil Twilight
Nautical Twilight
Astronomical Twilight
Moon
Length of Visible Light
Length of Day
Tomorrow will be .
, % of the Moon is Illuminated

Today's Extremes

State Highs State Lows

Community

WunderPhotos

Upload Photos

1,962,540 photos uploaded!

WunderBlog® & News

Nearby

Air Quality

  Air Quality AQ Index Pollutant
Not available.

Snow Depth

Station Depth Elevation

Earthquake Activity

City Distance Mag. Time & Date
Minimum magnitude displayed is 2.5.

Coastal Water Temperatures

Place Temperature

Stations

Nearby Weather Stations

Station Location Temp. Windchill Dew Point Humidity Wind Precip. Elev Updated Type
                   

Watches & Warnings

Winter Weather Advisory
Issued: 10:41 PM MST Feb. 26, 2017 – National Weather Service

... Winter Weather Advisory remains in effect until 4 am MST
Tuesday...

* affected area... the northern Wasatch mountains and southern
Utah mountains.

* Snow accumulations... 8 to 16 inches.

* Timing... developing over the northern Wasatch Range tonight,
then across the southern mountains later tonight. Snow will be
heavy at times through Monday evening, then diminish late Monday
night.

* Winds... Ridgetop winds may gust around 60 mph causing blowing
snow.

* Impacts... winter driving conditions are expected with snow
covered roadways and poor visibility on all mountain routes.

Precautionary/preparedness actions...

A Winter Weather Advisory means that visibilities will be limited
due to a combination of falling and blowing snow. Use caution
when traveling, especially in open areas.

For winter Road conditions from the Utah Department of
Transportation, visit
http://www.Udottraffic.Utah.Gov/roadweatherforecast.Aspx or dial
511.



For more information from NOAA/National Weather Service visit...